Etusivu
METAR-TAF:

METAR-TAF

Lentoasemat :

Belize City, Belize

Phillip Goldston

Leveyspiiri: 17-32N, Pituuspiiri: 088-18W, korkeus merenpinnasta: 5 m

Tämänhetkinen sää

Tämä raportti tehtiin 34 minuuttia sitten, kello 11.00 UTC
Tuuli 5 kn lännestä/luoteesta
Lämpötila 16°C
Kosteus 94%
Ilmanpaine 1024 hPa
Näkyvyys 10 km tai enemmän
Muutamia pilviä 3800 ft:n korkeudessa

METAR: MZBZ 111100Z 30005KT 9999 FEW038 16/15 A3024 Q1024 NOSIG

Aika: 05:34 (11:34 UTC)

Sääennuste

Tämä raportti tehtiin 8 tuntia ja 34 minuuttia sitten, kello 03.00 UTC
Ennuste voimassa 11. päivästä klo 06 UTC - 12. päivään klo 06 UTC
Tuuli 10 kn pohjoisen/luoteesta
Näkyvyys 10 km tai enemmän
Muutamia pilviä 2000 ft:n korkeudessa
Hajanaisia pilviä 4000 ft:n korkeudessa

TAF: MZBZ 110300Z 1106/1206 34010KT 9999 FEW020 SCT040

Säähavainnot ja -ennusteet yli 4000 lentoasemalta (METAR- ja TAF-raportit).

Käytössä olevat sääasemat on merkitty karttaan keltaisilla ja punaisilla pisteillä.

Aseta hiiri pisteen päälle nähdäksesi sääaseman nimen.

Klikkaa sitten nähdäksesi säähavainnot ja -ennusteet.

Kartan vaihtaminen: klikkaa mustalla rastilla varustettuja vihreitä pisteitä, niin voit zoomata sisään; viivalla varustettua vihreää pistettä, niin voit zoomata ulos tai vihreitä nuolia, niin pääset viereisille kartoille.


METAR-TAF: